Time;durP1;ratioP1;P1;durP2;ratioP2;P2;SDS_P1;SDS_P2;PMS_P1;PMS_P2;Temp;Humidity;BMP_temperature;BMP_pressure;BME280_temperature;BME280_humidity;BME280_pressure;Samples;Min_cycle;Max_cycle;Signal;HPM_P1;HPM_P2
2023/03/03 00:03:31;;;;;;;10.95;5.13;;;7.10;99.40;;;;;;10437628;28;20021;-85
2023/03/03 00:08:32;;;;;;;10.82;4.72;;;7.30;99.40;;;;;;10438105;28;20021;-85
2023/03/03 00:13:49;;;;;;;11.25;5.15;;;8.70;99.70;;;;;;10438600;28;20021;-85
2023/03/03 00:18:51;;;;;;;9.90;4.82;;;7.70;99.50;;;;;;10437272;28;20039;-85
2023/03/03 00:23:52;;;;;;;9.05;4.72;;;7.30;99.40;;;;;;10435480;28;20017;-85
2023/03/03 00:28:54;;;;;;;11.50;5.22;;;7.30;99.40;;;;;;10437812;28;20027;-85
2023/03/03 00:33:58;;;;;;;9.95;4.72;;;7.30;99.40;;;;;;10437590;28;20604;-85
2023/03/03 00:39:20;;;;;;;12.35;5.45;;;8.30;99.70;;;;;;10436144;28;20554;-85
2023/03/03 00:44:33;;;;;;;9.25;5.15;;;7.30;99.40;;;;;;10449210;28;20029;-85
2023/03/03 00:49:34;;;;;;;10.02;4.63;;;7.30;99.40;;;;;;10439807;28;20104;-85
2023/03/03 00:54:35;;;;;;;11.20;5.10;;;7.30;99.40;;;;;;10435613;28;20216;-85
2023/03/03 00:59:36;;;;;;;9.52;4.72;;;7.30;99.40;;;;;;10437599;28;20055;-85
2023/03/03 01:04:38;;;;;;;8.93;4.68;;;7.30;99.40;;;;;;10445742;28;20221;-85
2023/03/03 01:09:38;;;;;;;11.30;5.20;;;7.30;99.40;;;;;;10446464;28;20455;-85
2023/03/03 01:14:39;;;;;;;9.48;4.43;;;8.00;99.60;;;;;;10445187;28;20017;-85
2023/03/03 01:19:40;;;;;;;11.18;5.28;;;7.20;99.40;;;;;;10444954;28;20028;-85
2023/03/03 01:24:40;;;;;;;9.90;4.45;;;8.20;99.60;;;;;;10445320;28;20389;-85
2023/03/03 01:29:41;;;;;;;9.35;4.60;;;7.20;99.40;;;;;;10446408;28;20045;-85
2023/03/03 01:34:41;;;;;;;9.07;4.68;;;7.20;99.40;;;;;;10431783;28;20040;-85
2023/03/03 01:39:46;;;;;;;9.48;4.97;;;7.20;99.40;;;;;;10460335;28;20454;-86
2023/03/03 01:44:49;;;;;;;9.02;4.75;;;7.20;99.40;;;;;;10440876;28;20071;-85
2023/03/03 01:50:10;;;;;;;8.40;4.50;;;7.20;99.40;;;;;;10445010;28;20029;-85
2023/03/03 01:55:24;;;;;;;9.90;3.97;;;7.20;99.40;;;;;;10440996;28;20031;-85
2023/03/03 02:00:26;;;;;;;8.88;4.80;;;7.50;99.40;;;;;;10460826;28;20040;-85
2023/03/03 02:05:27;;;;;;;10.05;4.40;;;7.20;99.40;;;;;;10437957;28;20116;-85
2023/03/03 02:10:29;;;;;;;10.07;4.88;;;7.20;99.40;;;;;;10444442;28;20025;-85
2023/03/03 02:15:31;;;;;;;8.95;4.60;;;7.50;99.40;;;;;;10441722;28;20340;-85
2023/03/03 02:20:41;;;;;;;10.63;4.50;;;7.60;99.50;;;;;;10441493;28;20052;-85
2023/03/03 02:25:52;;;;;;;11.00;4.40;;;7.10;99.30;;;;;;10439036;28;20408;-85
2023/03/03 02:30:58;;;;;;;8.63;4.38;;;7.10;99.30;;;;;;10440908;28;20033;-85
2023/03/03 02:35:58;;;;;;;10.88;5.32;;;7.10;99.30;;;;;;10458476;28;20029;-85
2023/03/03 02:41:08;;;;;;;8.23;4.60;;;7.80;99.50;;;;;;10441900;28;20943;-85
2023/03/03 02:46:08;;;;;;;8.60;4.07;;;7.10;99.30;;;;;;10444556;28;20492;-85
2023/03/03 02:51:10;;;;;;;8.73;3.85;;;7.10;99.30;;;;;;10443746;28;20401;-84
2023/03/03 02:56:10;;;;;;;8.15;4.15;;;8.20;99.60;;;;;;10442755;28;20040;-85
2023/03/03 03:01:11;;;;;;;10.50;4.95;;;7.10;99.30;;;;;;10441971;28;20522;-85
2023/03/03 03:06:12;;;;;;;8.80;4.70;;;8.20;99.60;;;;;;10442462;28;20032;-85
2023/03/03 03:11:12;;;;;;;8.02;3.67;;;7.10;99.30;;;;;;10440838;28;20074;-85
2023/03/03 03:16:13;;;;;;;10.02;4.50;;;7.10;99.30;;;;;;10441008;28;20029;-85
2023/03/03 03:21:13;;;;;;;9.40;3.88;;;7.10;99.30;;;;;;10440855;28;20044;-85
2023/03/03 03:26:14;;;;;;;8.60;4.13;;;7.10;99.30;;;;;;10441079;28;20082;-85
2023/03/03 03:31:16;;;;;;;8.52;4.30;;;7.50;99.40;;;;;;10441441;28;20036;-85
2023/03/03 03:36:17;;;;;;;11.43;4.28;;;7.10;99.30;;;;;;10453102;28;20122;-85
2023/03/03 03:41:17;;;;;;;10.77;4.40;;;7.10;99.30;;;;;;10434499;28;20052;-85
2023/03/03 03:46:18;;;;;;;8.43;3.90;;;7.10;99.30;;;;;;10439561;28;20033;-85
2023/03/03 03:51:18;;;;;;;7.72;3.45;;;7.10;99.30;;;;;;10439774;28;20025;-85
2023/03/03 03:56:19;;;;;;;6.60;3.70;;;7.00;99.30;;;;;;10435602;28;20029;-85
2023/03/03 04:01:20;;;;;;;8.35;3.33;;;7.00;99.30;;;;;;10441561;28;20067;-85
2023/03/03 04:06:20;;;;;;;8.60;4.38;;;7.10;99.30;;;;;;10456164;28;20025;-86
2023/03/03 04:11:21;;;;;;;8.85;3.75;;;7.00;99.30;;;;;;10454406;28;20499;-85
2023/03/03 04:16:21;;;;;;;8.48;3.92;;;8.10;99.60;;;;;;10439831;28;20182;-85
2023/03/03 04:21:22;;;;;;;7.00;3.80;;;7.00;99.30;;;;;;10431951;28;20032;-85
2023/03/03 04:26:23;;;;;;;7.65;3.45;;;7.00;99.30;;;;;;10439965;28;20078;-85
2023/03/03 04:31:24;;;;;;;7.45;3.33;;;7.40;99.40;;;;;;10433923;28;20508;-85
2023/03/03 04:36:25;;;;;;;8.23;3.42;;;7.00;99.30;;;;;;10437518;28;20025;-85
2023/03/03 04:41:25;;;;;;;7.25;3.80;;;7.70;99.50;;;;;;10437859;28;20028;-85
2023/03/03 04:46:26;;;;;;;7.95;3.45;;;7.00;99.30;;;;;;10438794;28;20507;-85
2023/03/03 04:51:27;;;;;;;7.75;3.30;;;7.00;99.30;;;;;;10439407;28;20025;-85
2023/03/03 04:56:30;;;;;;;7.57;3.30;;;7.00;99.30;;;;;;10439589;28;20404;-85
2023/03/03 05:01:32;;;;;;;9.15;3.35;;;7.00;99.30;;;;;;10453157;28;20103;-85
2023/03/03 05:06:32;;;;;;;7.15;3.05;;;7.00;99.30;;;;;;10436476;28;20535;-85
2023/03/03 05:11:33;;;;;;;7.93;3.50;;;7.00;99.30;;;;;;10431983;28;20022;-85
2023/03/03 05:16:34;;;;;;;7.03;3.17;;;7.00;99.30;;;;;;10435003;28;20022;-85
2023/03/03 05:21:34;;;;;;;6.50;3.22;;;7.00;99.30;;;;;;10437170;28;20063;-85
2023/03/03 05:26:35;;;;;;;8.30;3.15;;;8.00;99.50;;;;;;10433162;28;20086;-85
2023/03/03 05:31:36;;;;;;;6.13;3.50;;;7.40;99.40;;;;;;10435026;28;20041;-85
2023/03/03 05:36:36;;;;;;;8.95;3.50;;;7.00;99.30;;;;;;10433494;28;20025;-85
2023/03/03 05:41:37;;;;;;;7.05;3.17;;;7.90;99.50;;;;;;10437094;28;20017;-85
2023/03/03 05:46:38;;;;;;;7.78;3.28;;;7.00;99.30;;;;;;10415714;28;20451;-85
2023/03/03 05:51:39;;;;;;;9.02;3.17;;;7.00;99.30;;;;;;10426280;28;20052;-84
2023/03/03 05:56:39;;;;;;;7.70;3.25;;;7.00;99.30;;;;;;10441861;28;20624;-84
2023/03/03 06:01:40;;;;;;;8.30;3.20;;;7.00;99.30;;;;;;10438228;28;20040;-87
2023/03/03 06:06:40;;;;;;;7.43;3.33;;;7.00;99.30;;;;;;10437066;28;20191;-84
2023/03/03 06:11:41;;;;;;;6.35;3.45;;;7.00;99.30;;;;;;10443092;28;20098;-84
2023/03/03 06:16:42;;;;;;;6.15;2.78;;;7.00;99.30;;;;;;10457939;28;20101;-83
2023/03/03 06:21:42;;;;;;;5.43;2.65;;;7.00;99.30;;;;;;10444742;28;20032;-84
2023/03/03 06:26:43;;;;;;;7.18;2.70;;;8.10;99.50;;;;;;10437545;28;20033;-83
2023/03/03 06:31:44;;;;;;;6.78;2.70;;;7.00;99.30;;;;;;10438821;28;20029;-84
2023/03/03 06:36:44;;;;;;;7.55;3.53;;;8.40;99.60;;;;;;10445222;28;20044;-85
2023/03/03 06:41:45;;;;;;;5.95;3.08;;;7.00;99.20;;;;;;10443227;28;20086;-82
2023/03/03 06:46:46;;;;;;;7.38;3.28;;;7.10;99.30;;;;;;10432979;28;20165;-83
2023/03/03 06:51:46;;;;;;;4.53;2.53;;;7.10;99.20;;;;;;10432961;28;20108;-85
2023/03/03 06:56:48;;;;;;;6.03;2.97;;;7.10;99.50;;;;;;10435727;28;20307;-84
2023/03/03 07:01:49;;;;;;;6.65;2.60;;;7.10;99.20;;;;;;10429867;28;20059;-85
2023/03/03 07:06:50;;;;;;;7.18;3.15;;;8.30;99.50;;;;;;10436780;28;20055;-84
2023/03/03 07:11:55;;;;;;;6.10;2.65;;;7.10;99.20;;;;;;10442940;28;20094;-84
2023/03/03 07:17:00;;;;;;;6.07;2.70;;;7.10;99.30;;;;;;10452331;28;20119;-86
2023/03/03 07:22:14;;;;;;;6.07;2.30;;;7.10;99.30;;;;;;10440227;28;20477;-85
2023/03/03 07:27:27;;;;;;;7.45;2.70;;;7.10;99.20;;;;;;10447452;28;20032;-83
2023/03/03 07:32:38;;;;;;;4.30;2.25;;;7.10;99.20;;;;;;10454948;28;20100;-84
2023/03/03 07:37:40;;;;;;;6.45;2.60;;;8.50;99.60;;;;;;10455117;28;20082;-84
2023/03/03 07:42:43;;;;;;;5.28;2.45;;;7.10;99.20;;;;;;10446454;28;20033;-84
2023/03/03 07:47:43;;;;;;;5.97;1.90;;;7.10;99.20;;;;;;10462641;28;20024;-85
2023/03/03 07:52:55;;;;;;;4.63;2.20;;;7.10;99.20;;;;;;10440705;28;20036;-85
2023/03/03 07:58:15;;;;;;;6.10;2.58;;;7.20;99.20;;;;;;10438645;28;20029;-84
2023/03/03 08:03:19;;;;;;;4.47;2.10;;;7.20;99.20;;;;;;10446387;28;20017;-84
2023/03/03 08:08:28;;;;;;;5.75;2.38;;;8.50;99.50;;;;;;10446531;28;20033;-84
2023/03/03 08:13:39;;;;;;;4.18;2.25;;;7.20;99.10;;;;;;10444449;28;20210;-85
2023/03/03 08:18:47;;;;;;;5.70;2.63;;;7.20;99.10;;;;;;10429020;28;20025;-85
2023/03/03 08:23:50;;;;;;;5.45;2.40;;;7.30;99.10;;;;;;10424664;28;20026;-85
2023/03/03 08:28:51;;;;;;;5.28;2.30;;;8.50;99.40;;;;;;10428008;28;20105;-86
2023/03/03 08:33:52;;;;;;;3.38;1.75;;;7.30;99.10;;;;;;10449405;28;20075;-85
2023/03/03 08:38:53;;;;;;;4.00;1.77;;;7.30;99.00;;;;;;10446085;28;20022;-86
2023/03/03 08:43:54;;;;;;;4.15;1.63;;;;;;;;;;10425539;28;20124;-82
2023/03/03 08:48:54;;;;;;;4.57;2.00;;;7.40;98.80;;;;;;10425790;28;20037;-85
2023/03/03 08:53:55;;;;;;;3.72;1.95;;;7.40;98.90;;;;;;10416748;28;20029;-85
2023/03/03 08:58:55;;;;;;;5.05;2.03;;;8.70;99.20;;;;;;10424622;28;20170;-86
2023/03/03 09:03:56;;;;;;;3.83;2.13;;;7.50;98.90;;;;;;10429625;28;20022;-86
2023/03/03 09:08:58;;;;;;;3.60;1.80;;;7.50;98.90;;;;;;10434052;28;20025;-84
2023/03/03 09:14:11;;;;;;;7.07;2.95;;;7.50;98.90;;;;;;10459201;28;20029;-84
2023/03/03 09:19:32;;;;;;;6.32;2.95;;;7.60;98.90;;;;;;10435548;28;20025;-84
2023/03/03 09:24:37;;;;;;;6.88;3.08;;;7.50;98.90;;;;;;10451604;28;20029;-84
2023/03/03 09:29:40;;;;;;;6.22;2.95;;;7.50;99.00;;;;;;10457104;28;20646;-84
2023/03/03 09:34:41;;;;;;;5.00;2.65;;;7.60;99.00;;;;;;10449215;28;20399;-84
2023/03/03 09:39:45;;;;;;;4.40;2.38;;;7.60;98.90;;;;;;10452774;28;20289;-84
2023/03/03 09:45:05;;;;;;;6.22;2.50;;;8.10;99.00;;;;;;10469184;28;20028;-83
2023/03/03 09:50:23;;;;;;;11.30;3.28;;;8.00;99.30;;;;;;10483127;28;20290;-84
2023/03/03 09:55:43;;;;;;;7.55;3.10;;;7.50;99.30;;;;;;10468594;28;20428;-83
2023/03/03 10:01:05;;;;;;;7.25;3.50;;;7.30;99.60;;;;;;10456799;28;20109;-83
2023/03/03 10:06:55;;;;;;;11.13;4.05;;;7.20;99.80;;;;;;10471130;28;20545;-83
2023/03/03 10:12:21;;;;;;;8.50;3.47;;;7.10;99.90;;;;;;10469253;28;20110;-84
2023/03/03 10:17:41;;;;;;;9.75;3.28;;;7.20;99.80;;;;;;10473717;28;20112;-86
2023/03/03 10:22:51;;;;;;;9.95;3.40;;;7.30;99.60;;;;;;10450065;28;20082;-88
2023/03/03 10:27:54;;;;;;;9.98;3.30;;;7.40;99.60;;;;;;10446363;28;20112;-87
2023/03/03 10:33:19;;;;;;;9.23;3.55;;;7.40;99.60;;;;;;10446072;28;20566;-86
2023/03/03 10:38:38;;;;;;;9.65;3.30;;;7.30;99.80;;;;;;10450919;28;20037;-86
2023/03/03 10:44:07;;;;;;;5.97;2.95;;;7.30;99.90;;;;;;10449239;28;20032;-87
2023/03/03 10:49:32;;;;;;;6.25;3.03;;;7.50;99.70;;;;;;10443999;28;20545;-88
2023/03/03 10:54:41;;;;;;;5.68;2.88;;;7.50;99.60;;;;;;10445495;28;20024;-87
2023/03/03 10:59:48;;;;;;;6.25;3.00;;;7.50;99.40;;;;;;10444035;28;20032;-86
2023/03/03 11:05:09;;;;;;;6.97;3.17;;;7.50;99.40;;;;;;10445782;28;20028;-87
2023/03/03 11:10:50;;;;;;;5.20;2.67;;;7.50;99.50;;;;;;10445533;28;20112;-86
2023/03/03 11:16:27;;;;;;;4.25;2.05;;;7.60;99.30;;;;;;10443949;28;20026;-88
2023/03/03 11:21:36;;;;;;;4.47;2.25;;;7.40;99.20;;;;;;10449418;28;20033;-83
2023/03/03 11:26:53;;;;;;;6.18;2.10;;;7.40;99.40;;;;;;10449022;28;20475;-83
2023/03/03 11:32:26;;;;;;;4.38;2.65;;;7.60;99.30;;;;;;10444331;28;20033;-88
2023/03/03 11:38:08;;;;;;;5.03;2.75;;;7.50;99.10;;;;;;10442719;28;20013;-86
2023/03/03 11:43:18;;;;;;;9.13;3.70;;;7.30;99.30;;;;;;10438422;28;20258;-83
2023/03/03 11:48:36;;;;;;;8.70;3.95;;;7.50;99.50;;;;;;10444249;28;20021;-87
2023/03/03 11:54:14;;;;;;;6.55;3.55;;;7.50;99.20;;;;;;10444263;28;20057;-85
2023/03/03 11:59:55;;;;;;;6.28;2.67;;;7.50;99.10;;;;;;10440411;28;20043;-83
2023/03/03 12:05:14;;;;;;;7.03;2.88;;;7.50;98.90;;;;;;10431226;28;20048;-83
2023/03/03 12:10:17;;;;;;;;;;;7.60;99.00;;;;;;10435196;28;20021;-84
2023/03/03 12:15:21;;;;;;;6.00;2.47;;;7.60;98.20;;;;;;10437736;28;19935;-84
2023/03/03 12:20:40;;;;;;;5.97;2.50;;;7.70;98.80;;;;;;10443154;28;20064;-86
2023/03/03 12:25:45;;;;;;;4.63;1.85;;;8.50;98.60;;;;;;10433483;28;20025;-85
2023/03/03 12:31:10;;;;;;;3.58;1.95;;;7.70;98.40;;;;;;10437723;28;20032;-85
2023/03/03 12:36:47;;;;;;;4.13;2.10;;;7.60;98.20;;;;;;10437435;28;20500;-85
2023/03/03 12:42:11;;;;;;;12.70;4.53;;;7.70;98.40;;;;;;10434802;28;20032;-85
2023/03/03 12:47:26;;;;;;;10.52;4.40;;;7.80;98.20;;;;;;10428223;28;20106;-85
2023/03/03 12:52:38;;;;;;;11.70;4.95;;;6.80;97.80;;;;;;10441184;28;20021;-84
2023/03/03 12:58:01;;;;;;;15.75;5.55;;;7.60;98.10;;;;;;10466110;28;20021;-86
2023/03/03 13:03:33;;;;;;;14.68;6.00;;;7.70;98.30;;;;;;10459133;28;20061;-84
2023/03/03 13:09:01;;;;;;;9.18;4.88;;;9.40;98.40;;;;;;10426959;28;20412;-85
2023/03/03 13:14:26;;;;;;;10.43;4.13;;;7.90;98.10;;;;;;10428256;28;20075;-86
2023/03/03 13:19:42;;;;;;;8.77;3.83;;;7.90;97.50;;;;;;10433949;28;20021;-86
2023/03/03 13:25:30;;;;;;;6.03;2.97;;;8.00;97.50;;;;;;10434363;28;20267;-86
2023/03/03 13:30:34;;;;;;;3.70;1.92;;;8.00;97.20;;;;;;10427726;28;20025;-85
2023/03/03 13:35:47;;;;;;;2.67;1.60;;;8.10;97.50;;;;;;10426821;28;21133;-85
2023/03/03 13:41:09;;;;;;;2.72;1.48;;;8.10;97.10;;;;;;10446779;28;20500;-83
2023/03/03 13:46:32;;;;;;;2.25;1.60;;;8.00;96.00;;;;;;10450919;28;20033;-85
2023/03/03 13:51:33;;;;;;;3.90;1.27;;;7.90;96.70;;;;;;10443974;28;20040;-85
2023/03/03 13:57:15;;;;;;;4.78;1.30;;;9.00;96.60;;;;;;10445382;28;20032;-85
2023/03/03 14:02:44;;;;;;;1.40;0.90;;;7.80;96.20;;;;;;10385998;28;20040;-85
2023/03/03 14:07:58;;;;;;;2.20;1.00;;;7.90;95.70;;;;;;10455849;28;20109;-85
2023/03/03 14:13:13;;;;;;;2.15;0.90;;;7.90;96.10;;;;;;10445524;28;20032;-85
2023/03/03 14:18:29;;;;;;;2.40;1.05;;;8.20;95.60;;;;;;10461063;28;20079;-84
2023/03/03 14:24:02;;;;;;;2.38;1.00;;;8.60;95.60;;;;;;10442298;28;20060;-83
2023/03/03 14:29:17;;;;;;;3.92;1.10;;;8.80;95.10;;;;;;10450549;28;20051;-85
2023/03/03 14:34:21;;;;;;;1.48;0.93;;;10.10;95.10;;;;;;10456806;28;20037;-84
2023/03/03 14:39:36;;;;;;;1.23;1.02;;;8.40;95.40;;;;;;10446713;28;20029;-82
2023/03/03 14:44:53;;;;;;;2.75;0.77;;;8.30;95.50;;;;;;10458173;28;20052;-83
2023/03/03 14:49:58;;;;;;;3.17;1.15;;;9.50;95.70;;;;;;10460791;28;20017;-82
2023/03/03 14:55:20;;;;;;;2.70;1.25;;;8.70;95.50;;;;;;10457812;28;20070;-82
2023/03/03 15:00:21;;;;;;;4.13;0.90;;;8.60;95.60;;;;;;10450583;28;20029;-83
2023/03/03 15:05:26;;;;;;;6.30;1.25;;;8.70;95.40;;;;;;10454719;28;20033;-83
2023/03/03 15:10:36;;;;;;;2.45;1.30;;;8.70;95.30;;;;;;10452877;28;20083;-83
2023/03/03 15:15:59;;;;;;;4.50;1.27;;;8.80;95.50;;;;;;10452173;28;20533;-83
2023/03/03 15:21:14;;;;;;;6.63;1.88;;;8.80;94.70;;;;;;10452339;28;20051;-83
2023/03/03 15:26:42;;;;;;;5.95;1.05;;;8.80;95.30;;;;;;10420926;28;20032;-87
2023/03/03 15:31:51;;;;;;;6.22;1.17;;;8.80;95.50;;;;;;10437739;28;20407;-89
2023/03/03 15:36:58;;;;;;;12.50;1.40;;;9.60;96.00;;;;;;10441286;28;20040;-85
2023/03/03 15:42:12;;;;;;;3.83;1.15;;;10.20;96.30;;;;;;10441934;28;20144;-83
2023/03/03 15:47:39;;;;;;;4.05;1.08;;;8.90;96.40;;;;;;10441913;28;20177;-85
2023/03/03 15:53:01;;;;;;;7.85;1.70;;;9.00;96.50;;;;;;10455515;28;20028;-83
2023/03/03 15:58:20;;;;;;;4.18;1.30;;;9.00;96.80;;;;;;10449442;28;20484;-83
2023/03/03 16:03:35;;;;;;;6.43;1.40;;;9.00;97.10;;;;;;10448122;28;20017;-84
2023/03/03 16:08:56;;;;;;;3.78;1.63;;;9.00;97.20;;;;;;10453609;28;20026;-81
2023/03/03 16:14:11;;;;;;;3.05;1.20;;;9.00;97.40;;;;;;10451197;28;20016;-81
2023/03/03 16:19:21;;;;;;;4.32;1.27;;;8.90;97.70;;;;;;10449150;28;20416;-82
2023/03/03 16:24:31;;;;;;;4.43;1.30;;;8.90;97.90;;;;;;10452233;28;20036;-83
2023/03/03 16:30:03;;;;;;;6.40;1.20;;;8.90;98.10;;;;;;10445094;28;20101;-84
2023/03/03 16:35:20;;;;;;;5.15;1.52;;;8.90;98.10;;;;;;10440631;28;20041;-85
2023/03/03 16:40:26;;;;;;;4.82;1.05;;;8.90;98.10;;;;;;10445974;28;20075;-83
2023/03/03 16:45:32;;;;;;;10.65;1.83;;;8.80;98.20;;;;;;10440968;28;20487;-85
2023/03/03 16:50:53;;;;;;;4.60;1.40;;;8.90;98.20;;;;;;10443193;28;20040;-86
2023/03/03 16:56:16;;;;;;;3.80;1.30;;;8.90;98.20;;;;;;10441060;28;20511;-86
2023/03/03 17:01:26;;;;;;;9.65;1.95;;;8.90;98.10;;;;;;10438469;28;20033;-83
2023/03/03 17:06:50;;;;;;;13.10;2.55;;;8.70;97.60;;;;;;10445335;28;20104;-83
2023/03/03 17:12:16;;;;;;;10.65;2.25;;;8.90;97.50;;;;;;10439281;28;20025;-84
2023/03/03 17:17:30;;;;;;;14.55;2.60;;;8.50;97.40;;;;;;10443892;28;20021;-84
2023/03/03 17:23:02;;;;;;;9.02;2.50;;;8.70;97.60;;;;;;10439773;28;20036;-85
2023/03/03 17:28:27;;;;;;;11.63;2.38;;;8.70;97.70;;;;;;10432982;28;20017;-85
2023/03/03 17:33:39;;;;;;;7.53;2.17;;;8.70;97.50;;;;;;10442759;28;20025;-82
2023/03/03 17:38:58;;;;;;;10.43;2.15;;;8.70;97.70;;;;;;10441000;28;20021;-86
2023/03/03 17:44:30;;;;;;;5.32;1.75;;;9.10;97.80;;;;;;10437822;28;20056;-85
2023/03/03 17:50:32;;;;;;;6.68;1.70;;;8.70;97.80;;;;;;10434065;28;20044;-85
2023/03/03 17:55:59;;;;;;;11.02;2.08;;;8.70;97.90;;;;;;10404141;28;20040;-83
2023/03/03 18:01:22;;;;;;;6.47;1.80;;;8.70;98.00;;;;;;10439135;28;20113;-86
2023/03/03 18:06:41;;;;;;;8.73;2.08;;;8.70;98.10;;;;;;10453221;28;20159;-86
2023/03/03 18:11:59;;;;;;;7.63;2.20;;;8.80;98.10;;;;;;10443809;28;20013;-85
2023/03/03 18:17:02;;;;;;;12.40;2.08;;;8.80;98.00;;;;;;10460791;28;20017;-85
2023/03/03 18:22:16;;;;;;;8.20;1.90;;;8.80;98.00;;;;;;10447554;28;20424;-85
2023/03/03 18:27:23;;;;;;;7.00;1.80;;;8.80;98.10;;;;;;10450090;28;20044;-84
2023/03/03 18:32:23;;;;;;;9.50;2.30;;;8.80;98.10;;;;;;10449900;28;20052;-83
2023/03/03 18:37:30;;;;;;;7.85;2.28;;;8.80;98.20;;;;;;10444651;28;20525;-86
2023/03/03 18:42:44;;;;;;;6.60;2.05;;;8.80;98.20;;;;;;10435530;28;20055;-85
2023/03/03 18:48:00;;;;;;;5.50;1.77;;;8.80;98.20;;;;;;10435596;28;20053;-85
2023/03/03 18:53:09;;;;;;;5.18;1.85;;;8.80;98.30;;;;;;10439703;28;20021;-84
2023/03/03 18:58:13;;;;;;;5.43;2.20;;;9.70;98.60;;;;;;10439721;28;20037;-86
2023/03/03 19:03:36;;;;;;;3.83;1.40;;;9.90;98.70;;;;;;10451592;28;20492;-84
2023/03/03 19:08:56;;;;;;;5.07;1.80;;;8.70;98.30;;;;;;10440786;28;20373;-85
2023/03/03 19:14:16;;;;;;;5.53;1.55;;;8.70;98.40;;;;;;10442037;28;20017;-85
2023/03/03 19:19:23;;;;;;;5.32;2.10;;;8.90;98.40;;;;;;10441075;28;20020;-85
2023/03/03 19:24:30;;;;;;;8.35;1.60;;;8.70;98.50;;;;;;10445689;28;20063;-86
2023/03/03 19:29:46;;;;;;;4.47;1.60;;;8.70;98.50;;;;;;10442227;28;20020;-86
2023/03/03 19:35:17;;;;;;;5.05;1.50;;;9.90;98.70;;;;;;10445977;28;20062;-84
2023/03/03 19:40:24;;;;;;;4.20;1.60;;;8.70;98.50;;;;;;10452752;28;20041;-85
2023/03/03 19:45:39;;;;;;;3.50;1.27;;;8.70;98.50;;;;;;10444418;28;20041;-85
2023/03/03 19:51:07;;;;;;;5.80;1.95;;;8.70;98.50;;;;;;10442786;28;20027;-83
2023/03/03 19:56:11;;;;;;;2.60;1.17;;;8.60;98.50;;;;;;10456485;28;20116;-85
2023/03/03 20:01:28;;;;;;;3.92;1.50;;;8.60;98.50;;;;;;10441803;28;20037;-84
2023/03/03 20:06:36;;;;;;;3.88;1.38;;;8.60;98.50;;;;;;10439155;28;20017;-85
2023/03/03 20:12:02;;;;;;;3.55;1.42;;;9.50;98.70;;;;;;10440218;28;20350;-84
2023/03/03 20:17:31;;;;;;;5.15;1.25;;;8.60;98.50;;;;;;10438686;28;20723;-85
2023/03/03 20:22:39;;;;;;;;;;;8.60;98.50;;;;;;10421790;28;20045;-84
2023/03/03 20:27:53;;;;;;;4.65;1.63;;;8.60;98.40;;;;;;10443652;28;19916;-84
2023/03/03 20:33:01;;;;;;;3.88;1.35;;;9.20;98.60;;;;;;10445303;28;20037;-84
2023/03/03 20:38:14;;;;;;;2.65;1.10;;;8.60;98.50;;;;;;10435136;28;20021;-85
2023/03/03 20:43:35;;;;;;;3.95;1.23;;;10.00;98.80;;;;;;10441518;28;20124;-83
2023/03/03 20:49:00;;;;;;;6.93;1.80;;;8.60;98.50;;;;;;10440529;28;20158;-84
2023/03/03 20:54:39;;;;;;;5.53;1.65;;;8.60;98.50;;;;;;10443475;28;20036;-83
2023/03/03 20:59:54;;;;;;;7.40;1.30;;;8.60;98.50;;;;;;10459864;28;20032;-83
2023/03/03 21:05:13;;;;;;;2.95;0.98;;;8.60;98.50;;;;;;10442569;28;20025;-84
2023/03/03 21:10:22;;;;;;;3.55;1.30;;;9.50;98.70;;;;;;10438303;28;20079;-84
2023/03/03 21:15:34;;;;;;;2.08;1.20;;;8.60;98.60;;;;;;10443272;28;20023;-84
2023/03/03 21:20:35;;;;;;;5.30;1.75;;;10.20;98.90;;;;;;10448738;28;20032;-84
2023/03/03 21:25:56;;;;;;;4.63;1.30;;;8.60;98.60;;;;;;10446465;28;20040;-84
2023/03/03 21:31:21;;;;;;;4.50;1.10;;;8.50;98.50;;;;;;10453434;28;20064;-83
2023/03/03 21:36:43;;;;;;;3.17;1.30;;;8.60;98.50;;;;;;10447994;28;20033;-86
2023/03/03 21:42:13;;;;;;;5.22;1.60;;;8.60;98.60;;;;;;10448970;28;20088;-84
2023/03/03 21:47:16;;;;;;;2.88;1.45;;;9.30;99.00;;;;;;10442921;28;20142;-85
2023/03/03 21:52:19;;;;;;;3.88;1.45;;;8.50;98.60;;;;;;10448004;28;20691;-86
2023/03/03 21:57:20;;;;;;;2.53;1.27;;;8.50;98.60;;;;;;10444116;28;20051;-86
2023/03/03 22:02:20;;;;;;;3.50;1.42;;;8.50;98.60;;;;;;10437863;28;20113;-86
2023/03/03 22:07:21;;;;;;;3.47;1.20;;;9.30;98.80;;;;;;10442912;28;20024;-85
2023/03/03 22:12:34;;;;;;;6.35;1.40;;;9.90;98.90;;;;;;10440242;28;20377;-85
2023/03/03 22:17:39;;;;;;;2.97;1.13;;;10.20;99.00;;;;;;10438517;28;20068;-85
2023/03/03 22:22:41;;;;;;;5.15;1.30;;;8.50;98.60;;;;;;10441717;28;20028;-85
2023/03/03 22:27:41;;;;;;;3.42;1.15;;;9.50;98.80;;;;;;10447236;28;20036;-84
2023/03/03 22:32:42;;;;;;;4.50;1.10;;;8.50;98.60;;;;;;10441906;28;20044;-86
2023/03/03 22:37:42;;;;;;;4.68;1.17;;;8.50;98.60;;;;;;10442317;28;20025;-82
2023/03/03 22:42:43;;;;;;;2.35;1.00;;;8.50;98.60;;;;;;10439254;28;20021;-85
2023/03/03 22:47:44;;;;;;;3.38;1.38;;;8.50;98.60;;;;;;10443910;28;20032;-85
2023/03/03 22:52:44;;;;;;;5.10;1.15;;;9.90;98.90;;;;;;10438095;28;20370;-85
2023/03/03 22:57:45;;;;;;;2.88;1.00;;;8.50;98.60;;;;;;10457894;28;20033;-85
2023/03/03 23:02:46;;;;;;;2.67;1.00;;;8.50;98.60;;;;;;10433766;28;20044;-85
2023/03/03 23:07:46;;;;;;;3.45;1.10;;;9.30;98.80;;;;;;10429939;28;20025;-85
2023/03/03 23:12:47;;;;;;;3.90;1.30;;;8.50;98.60;;;;;;10435902;28;20028;-85
2023/03/03 23:17:48;;;;;;;2.72;1.05;;;8.50;98.60;;;;;;10435597;28;20028;-84
2023/03/03 23:22:48;;;;;;;4.32;1.05;;;8.50;98.60;;;;;;10442455;28;20025;-84
2023/03/03 23:27:50;;;;;;;6.30;1.30;;;8.50;98.60;;;;;;10445217;28;20051;-84
2023/03/03 23:32:50;;;;;;;3.17;0.80;;;9.00;98.80;;;;;;10440624;28;20404;-85
2023/03/03 23:37:51;;;;;;;2.72;0.90;;;8.50;98.60;;;;;;10445126;28;20100;-84
2023/03/03 23:42:52;;;;;;;5.38;1.27;;;8.40;98.60;;;;;;10443556;28;20233;-84
2023/03/03 23:47:52;;;;;;;2.20;0.98;;;8.40;98.60;;;;;;10436812;28;20036;-84
2023/03/03 23:52:53;;;;;;;4.05;1.00;;;8.40;98.60;;;;;;10440604;28;20401;-84
2023/03/03 23:57:54;;;;;;;6.30;1.25;;;9.30;98.90;;;;;;10441123;28;20032;-84
